sensor_id;sensor_type;location;lat;lon;timestamp;temperature;humidity
20442;DHT22;10380;52.102;20.614;2023-02-13T00:00:32;4.60;99.90
20442;DHT22;10380;52.102;20.614;2023-02-13T00:02:59;4.70;99.90
20442;DHT22;10380;52.102;20.614;2023-02-13T00:05:26;4.70;99.90
20442;DHT22;10380;52.102;20.614;2023-02-13T00:07:53;4.70;99.90
20442;DHT22;10380;52.102;20.614;2023-02-13T00:10:20;4.70;99.90
20442;DHT22;10380;52.102;20.614;2023-02-13T00:12:47;4.70;99.90
20442;DHT22;10380;52.102;20.614;2023-02-13T00:15:14;4.70;99.90
20442;DHT22;10380;52.102;20.614;2023-02-13T00:17:41;5.40;99.90
20442;DHT22;10380;52.102;20.614;2023-02-13T00:20:09;4.70;99.90
20442;DHT22;10380;52.102;20.614;2023-02-13T00:22:37;4.80;99.90
20442;DHT22;10380;52.102;20.614;2023-02-13T00:25:06;4.70;99.90
20442;DHT22;10380;52.102;20.614;2023-02-13T00:27:33;4.70;99.90
20442;DHT22;10380;52.102;20.614;2023-02-13T00:30:00;4.80;99.90
20442;DHT22;10380;52.102;20.614;2023-02-13T00:32:27;4.70;99.90
20442;DHT22;10380;52.102;20.614;2023-02-13T00:34:54;4.80;99.90
20442;DHT22;10380;52.102;20.614;2023-02-13T00:37:22;4.80;99.90
20442;DHT22;10380;52.102;20.614;2023-02-13T00:39:49;4.80;99.90
20442;DHT22;10380;52.102;20.614;2023-02-13T00:42:16;4.80;99.90
20442;DHT22;10380;52.102;20.614;2023-02-13T00:44:43;5.50;99.90
20442;DHT22;10380;52.102;20.614;2023-02-13T00:47:10;4.80;99.90
20442;DHT22;10380;52.102;20.614;2023-02-13T00:49:40;4.80;99.90
20442;DHT22;10380;52.102;20.614;2023-02-13T00:52:07;4.80;99.90
20442;DHT22;10380;52.102;20.614;2023-02-13T00:54:34;4.80;99.90
20442;DHT22;10380;52.102;20.614;2023-02-13T00:57:02;4.80;99.90
20442;DHT22;10380;52.102;20.614;2023-02-13T00:59:28;4.80;99.90
20442;DHT22;10380;52.102;20.614;2023-02-13T01:01:55;4.80;99.90
20442;DHT22;10380;52.102;20.614;2023-02-13T01:04:23;4.80;99.90
20442;DHT22;10380;52.102;20.614;2023-02-13T01:06:50;4.80;99.90
20442;DHT22;10380;52.102;20.614;2023-02-13T01:09:18;4.80;99.90
20442;DHT22;10380;52.102;20.614;2023-02-13T01:11:45;4.80;99.90
20442;DHT22;10380;52.102;20.614;2023-02-13T01:14:12;4.80;99.90
20442;DHT22;10380;52.102;20.614;2023-02-13T01:16:39;4.80;99.90
20442;DHT22;10380;52.102;20.614;2023-02-13T01:19:05;4.80;99.90
20442;DHT22;10380;52.102;20.614;2023-02-13T01:21:32;4.80;99.90
20442;DHT22;10380;52.102;20.614;2023-02-13T01:24:03;5.30;99.90
20442;DHT22;10380;52.102;20.614;2023-02-13T01:26:30;4.70;99.90
20442;DHT22;10380;52.102;20.614;2023-02-13T01:28:57;4.80;99.90
20442;DHT22;10380;52.102;20.614;2023-02-13T01:31:24;4.70;99.90
20442;DHT22;10380;52.102;20.614;2023-02-13T01:33:54;4.70;99.90
20442;DHT22;10380;52.102;20.614;2023-02-13T01:36:21;4.70;99.90
20442;DHT22;10380;52.102;20.614;2023-02-13T01:38:53;6.10;99.90
20442;DHT22;10380;52.102;20.614;2023-02-13T01:41:21;4.70;99.90
20442;DHT22;10380;52.102;20.614;2023-02-13T01:43:59;4.80;99.90
20442;DHT22;10380;52.102;20.614;2023-02-13T01:46:33;4.80;99.90
20442;DHT22;10380;52.102;20.614;2023-02-13T01:49:16;4.80;99.90
20442;DHT22;10380;52.102;20.614;2023-02-13T01:51:44;4.80;99.90
20442;DHT22;10380;52.102;20.614;2023-02-13T01:54:19;4.80;99.90
20442;DHT22;10380;52.102;20.614;2023-02-13T01:57:14;4.80;99.90
20442;DHT22;10380;52.102;20.614;2023-02-13T01:59:54;4.80;99.90
20442;DHT22;10380;52.102;20.614;2023-02-13T02:02:22;4.80;99.90
20442;DHT22;10380;52.102;20.614;2023-02-13T02:04:50;4.80;99.90
20442;DHT22;10380;52.102;20.614;2023-02-13T02:07:23;4.90;99.90
20442;DHT22;10380;52.102;20.614;2023-02-13T02:09:54;4.80;99.90
20442;DHT22;10380;52.102;20.614;2023-02-13T02:12:24;4.80;99.90
20442;DHT22;10380;52.102;20.614;2023-02-13T02:14:54;4.80;99.90
20442;DHT22;10380;52.102;20.614;2023-02-13T02:17:22;4.90;99.90
20442;DHT22;10380;52.102;20.614;2023-02-13T02:33:39;4.90;99.90
20442;DHT22;10380;52.102;20.614;2023-02-13T02:36:20;4.90;99.90
20442;DHT22;10380;52.102;20.614;2023-02-13T02:44:49;5.00;99.90
20442;DHT22;10380;52.102;20.614;2023-02-13T02:47:27;5.00;99.90
20442;DHT22;10380;52.102;20.614;2023-02-13T02:51:13;5.00;99.90
20442;DHT22;10380;52.102;20.614;2023-02-13T02:55:49;5.00;99.90
20442;DHT22;10380;52.102;20.614;2023-02-13T03:01:27;5.00;99.90
20442;DHT22;10380;52.102;20.614;2023-02-13T03:04:25;6.30;99.90
20442;DHT22;10380;52.102;20.614;2023-02-13T03:07:15;5.00;99.90
20442;DHT22;10380;52.102;20.614;2023-02-13T03:09:51;5.00;99.90
20442;DHT22;10380;52.102;20.614;2023-02-13T03:12:50;5.10;99.90
20442;DHT22;10380;52.102;20.614;2023-02-13T03:15:38;5.10;99.90
20442;DHT22;10380;52.102;20.614;2023-02-13T03:18:26;5.10;99.90
20442;DHT22;10380;52.102;20.614;2023-02-13T03:21:28;5.10;99.90
20442;DHT22;10380;52.102;20.614;2023-02-13T03:30:18;5.10;99.90
20442;DHT22;10380;52.102;20.614;2023-02-13T03:33:04;5.10;99.90
20442;DHT22;10380;52.102;20.614;2023-02-13T03:38:57;5.10;99.90
20442;DHT22;10380;52.102;20.614;2023-02-13T03:41:39;5.10;99.90
20442;DHT22;10380;52.102;20.614;2023-02-13T03:44:17;5.10;99.90
20442;DHT22;10380;52.102;20.614;2023-02-13T03:46:48;5.10;99.90
20442;DHT22;10380;52.102;20.614;2023-02-13T03:49:31;5.10;99.90
20442;DHT22;10380;52.102;20.614;2023-02-13T03:52:25;5.10;99.90
20442;DHT22;10380;52.102;20.614;2023-02-13T03:55:09;5.10;99.90
20442;DHT22;10380;52.102;20.614;2023-02-13T03:57:59;5.10;99.90
20442;DHT22;10380;52.102;20.614;2023-02-13T04:00:49;5.10;99.90
20442;DHT22;10380;52.102;20.614;2023-02-13T04:06:02;4.40;99.90
20442;DHT22;10380;52.102;20.614;2023-02-13T04:08:29;5.10;99.90
20442;DHT22;10380;52.102;20.614;2023-02-13T04:11:03;5.10;99.90
20442;DHT22;10380;52.102;20.614;2023-02-13T04:13:56;5.10;99.90
20442;DHT22;10380;52.102;20.614;2023-02-13T04:19:02;5.10;99.90
20442;DHT22;10380;52.102;20.614;2023-02-13T04:21:38;5.10;99.90
20442;DHT22;10380;52.102;20.614;2023-02-13T04:24:06;5.10;99.90
20442;DHT22;10380;52.102;20.614;2023-02-13T04:26:42;5.10;99.90
20442;DHT22;10380;52.102;20.614;2023-02-13T04:29:09;5.10;99.90
20442;DHT22;10380;52.102;20.614;2023-02-13T04:31:36;7.40;99.90
20442;DHT22;10380;52.102;20.614;2023-02-13T04:34:03;5.10;99.90
20442;DHT22;10380;52.102;20.614;2023-02-13T04:36:30;5.20;99.90
20442;DHT22;10380;52.102;20.614;2023-02-13T04:38:57;5.20;99.90
20442;DHT22;10380;52.102;20.614;2023-02-13T04:41:24;5.10;99.90
20442;DHT22;10380;52.102;20.614;2023-02-13T04:43:51;5.20;99.90
20442;DHT22;10380;52.102;20.614;2023-02-13T04:46:18;5.20;99.90
20442;DHT22;10380;52.102;20.614;2023-02-13T04:48:45;5.20;99.90
20442;DHT22;10380;52.102;20.614;2023-02-13T04:51:12;5.10;99.90
20442;DHT22;10380;52.102;20.614;2023-02-13T04:53:40;5.10;99.90
20442;DHT22;10380;52.102;20.614;2023-02-13T04:56:08;5.20;99.90
20442;DHT22;10380;52.102;20.614;2023-02-13T04:58:35;5.20;99.90
20442;DHT22;10380;52.102;20.614;2023-02-13T05:01:09;5.20;99.90
20442;DHT22;10380;52.102;20.614;2023-02-13T05:03:36;5.10;99.90
20442;DHT22;10380;52.102;20.614;2023-02-13T05:06:03;4.70;99.90
20442;DHT22;10380;52.102;20.614;2023-02-13T05:08:30;5.10;99.90
20442;DHT22;10380;52.102;20.614;2023-02-13T05:10:57;5.10;99.90
20442;DHT22;10380;52.102;20.614;2023-02-13T05:13:25;5.10;99.90
20442;DHT22;10380;52.102;20.614;2023-02-13T05:15:51;5.90;99.90
20442;DHT22;10380;52.102;20.614;2023-02-13T05:18:19;5.10;99.90
20442;DHT22;10380;52.102;20.614;2023-02-13T05:20:47;5.10;99.90
20442;DHT22;10380;52.102;20.614;2023-02-13T05:23:34;5.10;99.90
20442;DHT22;10380;52.102;20.614;2023-02-13T05:26:02;5.10;99.90
20442;DHT22;10380;52.102;20.614;2023-02-13T05:28:29;5.10;99.90
20442;DHT22;10380;52.102;20.614;2023-02-13T05:31:14;5.10;99.90
20442;DHT22;10380;52.102;20.614;2023-02-13T05:33:41;5.10;99.90
20442;DHT22;10380;52.102;20.614;2023-02-13T05:36:08;5.10;99.90
20442;DHT22;10380;52.102;20.614;2023-02-13T05:38:35;5.10;99.90
20442;DHT22;10380;52.102;20.614;2023-02-13T05:41:02;5.10;99.90
20442;DHT22;10380;52.102;20.614;2023-02-13T05:46:07;5.20;99.90
20442;DHT22;10380;52.102;20.614;2023-02-13T05:48:35;5.80;99.90
20442;DHT22;10380;52.102;20.614;2023-02-13T05:51:03;5.20;99.90
20442;DHT22;10380;52.102;20.614;2023-02-13T05:53:30;5.20;99.90
20442;DHT22;10380;52.102;20.614;2023-02-13T05:56:02;4.70;99.90
20442;DHT22;10380;52.102;20.614;2023-02-13T05:58:31;5.20;99.90
20442;DHT22;10380;52.102;20.614;2023-02-13T06:00:59;5.20;99.90
20442;DHT22;10380;52.102;20.614;2023-02-13T06:03:28;5.20;99.90
20442;DHT22;10380;52.102;20.614;2023-02-13T06:05:55;5.20;99.90
20442;DHT22;10380;52.102;20.614;2023-02-13T06:08:23;5.30;99.90
20442;DHT22;10380;52.102;20.614;2023-02-13T06:10:51;5.20;99.90
20442;DHT22;10380;52.102;20.614;2023-02-13T06:13:18;5.20;99.90
20442;DHT22;10380;52.102;20.614;2023-02-13T06:15:44;5.20;99.90
20442;DHT22;10380;52.102;20.614;2023-02-13T06:18:12;5.20;99.90
20442;DHT22;10380;52.102;20.614;2023-02-13T06:20:39;5.20;99.90
20442;DHT22;10380;52.102;20.614;2023-02-13T06:23:07;5.20;99.90
20442;DHT22;10380;52.102;20.614;2023-02-13T06:25:35;5.20;99.90
20442;DHT22;10380;52.102;20.614;2023-02-13T06:28:02;5.20;99.90
20442;DHT22;10380;52.102;20.614;2023-02-13T06:30:30;5.10;99.90
20442;DHT22;10380;52.102;20.614;2023-02-13T06:32:57;5.10;99.90
20442;DHT22;10380;52.102;20.614;2023-02-13T06:35:25;5.10;99.90
20442;DHT22;10380;52.102;20.614;2023-02-13T06:37:52;5.10;99.90
20442;DHT22;10380;52.102;20.614;2023-02-13T06:40:20;5.10;99.90
20442;DHT22;10380;52.102;20.614;2023-02-13T06:42:47;5.10;99.90
20442;DHT22;10380;52.102;20.614;2023-02-13T06:45:14;5.10;99.90
20442;DHT22;10380;52.102;20.614;2023-02-13T06:47:45;5.10;99.90
20442;DHT22;10380;52.102;20.614;2023-02-13T06:50:14;5.10;99.90
20442;DHT22;10380;52.102;20.614;2023-02-13T06:52:49;5.10;99.90
20442;DHT22;10380;52.102;20.614;2023-02-13T06:55:16;5.10;99.90
20442;DHT22;10380;52.102;20.614;2023-02-13T06:57:44;5.10;99.90
20442;DHT22;10380;52.102;20.614;2023-02-13T07:00:13;5.00;99.90
20442;DHT22;10380;52.102;20.614;2023-02-13T07:02:41;5.10;99.90
20442;DHT22;10380;52.102;20.614;2023-02-13T07:05:09;5.10;99.90
20442;DHT22;10380;52.102;20.614;2023-02-13T07:07:37;5.10;99.90
20442;DHT22;10380;52.102;20.614;2023-02-13T07:10:06;5.10;99.90
20442;DHT22;10380;52.102;20.614;2023-02-13T07:12:34;5.20;99.90
20442;DHT22;10380;52.102;20.614;2023-02-13T07:15:05;5.10;99.90
20442;DHT22;10380;52.102;20.614;2023-02-13T07:17:33;5.10;99.90
20442;DHT22;10380;52.102;20.614;2023-02-13T07:20:00;5.10;99.90
20442;DHT22;10380;52.102;20.614;2023-02-13T07:22:27;5.10;99.90
20442;DHT22;10380;52.102;20.614;2023-02-13T07:24:54;5.10;99.90
20442;DHT22;10380;52.102;20.614;2023-02-13T07:27:21;5.10;99.90
20442;DHT22;10380;52.102;20.614;2023-02-13T07:29:47;5.10;99.90
20442;DHT22;10380;52.102;20.614;2023-02-13T07:32:14;5.10;99.90
20442;DHT22;10380;52.102;20.614;2023-02-13T07:34:41;5.10;99.90
20442;DHT22;10380;52.102;20.614;2023-02-13T07:37:27;5.10;99.90
20442;DHT22;10380;52.102;20.614;2023-02-13T07:39:54;5.20;99.90
20442;DHT22;10380;52.102;20.614;2023-02-13T07:42:21;5.20;99.90
20442;DHT22;10380;52.102;20.614;2023-02-13T07:44:48;5.20;99.90
20442;DHT22;10380;52.102;20.614;2023-02-13T07:47:15;5.20;99.90
20442;DHT22;10380;52.102;20.614;2023-02-13T07:49:45;5.20;99.90
20442;DHT22;10380;52.102;20.614;2023-02-13T07:52:12;5.30;99.90
20442;DHT22;10380;52.102;20.614;2023-02-13T07:54:39;5.20;99.90
20442;DHT22;10380;52.102;20.614;2023-02-13T07:57:14;5.30;99.90
20442;DHT22;10380;52.102;20.614;2023-02-13T07:59:40;5.30;99.90
20442;DHT22;10380;52.102;20.614;2023-02-13T08:02:11;5.30;99.90
20442;DHT22;10380;52.102;20.614;2023-02-13T08:04:40;5.40;99.90
20442;DHT22;10380;52.102;20.614;2023-02-13T08:07:07;5.40;99.90
20442;DHT22;10380;52.102;20.614;2023-02-13T08:09:34;5.40;99.90
20442;DHT22;10380;52.102;20.614;2023-02-13T08:12:19;5.40;99.90
20442;DHT22;10380;52.102;20.614;2023-02-13T08:14:46;5.40;99.90
20442;DHT22;10380;52.102;20.614;2023-02-13T08:17:13;5.50;99.90
20442;DHT22;10380;52.102;20.614;2023-02-13T08:19:39;5.50;99.90
20442;DHT22;10380;52.102;20.614;2023-02-13T08:22:06;5.60;99.90
20442;DHT22;10380;52.102;20.614;2023-02-13T08:24:33;5.70;99.90
20442;DHT22;10380;52.102;20.614;2023-02-13T08:27:00;5.70;99.90
20442;DHT22;10380;52.102;20.614;2023-02-13T08:29:27;5.80;99.90
20442;DHT22;10380;52.102;20.614;2023-02-13T08:31:53;5.90;99.90
20442;DHT22;10380;52.102;20.614;2023-02-13T08:34:20;5.90;99.90
20442;DHT22;10380;52.102;20.614;2023-02-13T08:36:47;6.00;99.90
20442;DHT22;10380;52.102;20.614;2023-02-13T08:39:14;6.00;99.90
20442;DHT22;10380;52.102;20.614;2023-02-13T08:41:41;6.00;99.90
20442;DHT22;10380;52.102;20.614;2023-02-13T08:44:09;6.20;99.90
20442;DHT22;10380;52.102;20.614;2023-02-13T08:46:36;6.10;99.90
20442;DHT22;10380;52.102;20.614;2023-02-13T08:49:03;6.20;99.90
20442;DHT22;10380;52.102;20.614;2023-02-13T08:51:30;6.20;99.90
20442;DHT22;10380;52.102;20.614;2023-02-13T08:53:57;6.30;99.90
20442;DHT22;10380;52.102;20.614;2023-02-13T08:56:24;6.30;99.90
20442;DHT22;10380;52.102;20.614;2023-02-13T08:58:50;6.30;99.90
20442;DHT22;10380;52.102;20.614;2023-02-13T09:01:18;6.30;99.90
20442;DHT22;10380;52.102;20.614;2023-02-13T09:03:45;6.40;99.90
20442;DHT22;10380;52.102;20.614;2023-02-13T09:06:12;6.40;99.90
20442;DHT22;10380;52.102;20.614;2023-02-13T09:08:39;6.40;99.90
20442;DHT22;10380;52.102;20.614;2023-02-13T09:11:05;6.40;99.90
20442;DHT22;10380;52.102;20.614;2023-02-13T09:13:33;6.40;99.90
20442;DHT22;10380;52.102;20.614;2023-02-13T09:16:03;6.50;99.90
20442;DHT22;10380;52.102;20.614;2023-02-13T09:18:33;6.50;99.90
20442;DHT22;10380;52.102;20.614;2023-02-13T09:21:06;6.60;99.90
20442;DHT22;10380;52.102;20.614;2023-02-13T09:23:36;6.60;99.90
20442;DHT22;10380;52.102;20.614;2023-02-13T09:26:05;6.60;99.90
20442;DHT22;10380;52.102;20.614;2023-02-13T09:28:33;6.60;99.90
20442;DHT22;10380;52.102;20.614;2023-02-13T09:31:15;6.50;99.90
20442;DHT22;10380;52.102;20.614;2023-02-13T09:33:46;6.50;99.90
20442;DHT22;10380;52.102;20.614;2023-02-13T09:36:15;6.40;99.90
20442;DHT22;10380;52.102;20.614;2023-02-13T09:38:55;7.70;99.90
20442;DHT22;10380;52.102;20.614;2023-02-13T09:41:27;6.30;99.90
20442;DHT22;10380;52.102;20.614;2023-02-13T09:46:35;6.30;99.90
20442;DHT22;10380;52.102;20.614;2023-02-13T09:49:13;6.10;99.90
20442;DHT22;10380;52.102;20.614;2023-02-13T09:51:43;6.00;99.90
20442;DHT22;10380;52.102;20.614;2023-02-13T09:54:15;6.00;99.90
20442;DHT22;10380;52.102;20.614;2023-02-13T09:59:42;5.90;99.90
20442;DHT22;10380;52.102;20.614;2023-02-13T10:05:35;5.80;99.90
20442;DHT22;10380;52.102;20.614;2023-02-13T10:08:15;5.90;99.90
20442;DHT22;10380;52.102;20.614;2023-02-13T10:16:36;5.90;99.90
20442;DHT22;10380;52.102;20.614;2023-02-13T10:21:49;6.00;99.90
20442;DHT22;10380;52.102;20.614;2023-02-13T10:26:56;6.10;99.90
20442;DHT22;10380;52.102;20.614;2023-02-13T10:29:37;6.20;99.90
20442;DHT22;10380;52.102;20.614;2023-02-13T10:35:29;6.20;99.90
20442;DHT22;10380;52.102;20.614;2023-02-13T10:37:58;6.10;99.90
20442;DHT22;10380;52.102;20.614;2023-02-13T10:40:35;6.10;99.90
20442;DHT22;10380;52.102;20.614;2023-02-13T10:43:07;6.10;99.90
20442;DHT22;10380;52.102;20.614;2023-02-13T10:45:53;6.10;99.90
20442;DHT22;10380;52.102;20.614;2023-02-13T10:51:29;6.00;99.90
20442;DHT22;10380;52.102;20.614;2023-02-13T11:02:33;6.60;99.90
20442;DHT22;10380;52.102;20.614;2023-02-13T11:05:23;6.10;99.90
20442;DHT22;10380;52.102;20.614;2023-02-13T11:07:50;6.20;99.90
20442;DHT22;10380;52.102;20.614;2023-02-13T11:10:20;6.30;99.90
20442;DHT22;10380;52.102;20.614;2023-02-13T11:12:47;6.30;99.90
20442;DHT22;10380;52.102;20.614;2023-02-13T11:17:59;6.40;99.90
20442;DHT22;10380;52.102;20.614;2023-02-13T11:22:54;6.30;99.90
20442;DHT22;10380;52.102;20.614;2023-02-13T11:25:25;6.30;99.90
20442;DHT22;10380;52.102;20.614;2023-02-13T11:28:09;6.40;99.90
20442;DHT22;10380;52.102;20.614;2023-02-13T11:30:37;6.70;99.90
20442;DHT22;10380;52.102;20.614;2023-02-13T11:35:35;6.30;99.90
20442;DHT22;10380;52.102;20.614;2023-02-13T11:38:31;6.30;99.90
20442;DHT22;10380;52.102;20.614;2023-02-13T11:41:21;6.30;99.90
20442;DHT22;10380;52.102;20.614;2023-02-13T11:43:53;6.40;99.90
20442;DHT22;10380;52.102;20.614;2023-02-13T11:46:42;6.40;99.90
20442;DHT22;10380;52.102;20.614;2023-02-13T11:49:20;6.40;99.90
20442;DHT22;10380;52.102;20.614;2023-02-13T11:54:37;6.50;99.90
20442;DHT22;10380;52.102;20.614;2023-02-13T11:57:33;6.50;99.90
20442;DHT22;10380;52.102;20.614;2023-02-13T12:02:55;6.50;99.90
20442;DHT22;10380;52.102;20.614;2023-02-13T12:05:24;6.50;99.90
20442;DHT22;10380;52.102;20.614;2023-02-13T12:07:56;6.50;99.90
20442;DHT22;10380;52.102;20.614;2023-02-13T12:10:27;6.50;99.90
20442;DHT22;10380;52.102;20.614;2023-02-13T12:15:35;6.60;99.90
20442;DHT22;10380;52.102;20.614;2023-02-13T12:23:34;6.60;99.90
20442;DHT22;10380;52.102;20.614;2023-02-13T12:26:29;6.60;99.90
20442;DHT22;10380;52.102;20.614;2023-02-13T12:31:41;6.60;99.90
20442;DHT22;10380;52.102;20.614;2023-02-13T12:34:54;6.60;99.90
20442;DHT22;10380;52.102;20.614;2023-02-13T12:45:55;6.60;99.90
20442;DHT22;10380;52.102;20.614;2023-02-13T12:51:22;6.60;99.90
20442;DHT22;10380;52.102;20.614;2023-02-13T12:54:42;6.60;99.90
20442;DHT22;10380;52.102;20.614;2023-02-13T13:13:27;7.10;99.90
20442;DHT22;10380;52.102;20.614;2023-02-13T13:18:36;7.00;99.90
20442;DHT22;10380;52.102;20.614;2023-02-13T13:21:29;7.00;99.90
20442;DHT22;10380;52.102;20.614;2023-02-13T13:24:16;7.00;99.90
20442;DHT22;10380;52.102;20.614;2023-02-13T13:26:47;7.00;99.90
20442;DHT22;10380;52.102;20.614;2023-02-13T13:31:54;7.00;99.90
20442;DHT22;10380;52.102;20.614;2023-02-13T13:34:23;7.00;99.90
20442;DHT22;10380;52.102;20.614;2023-02-13T13:36:59;7.00;99.90
20442;DHT22;10380;52.102;20.614;2023-02-13T13:42:14;7.00;99.90
20442;DHT22;10380;52.102;20.614;2023-02-13T13:45:01;6.90;99.90
20442;DHT22;10380;52.102;20.614;2023-02-13T13:47:44;6.90;99.90
20442;DHT22;10380;52.102;20.614;2023-02-13T13:50:30;6.80;99.90
20442;DHT22;10380;52.102;20.614;2023-02-13T13:53:06;6.70;99.90
20442;DHT22;10380;52.102;20.614;2023-02-13T14:03:48;6.70;99.90
20442;DHT22;10380;52.102;20.614;2023-02-13T14:06:27;6.70;99.90
20442;DHT22;10380;52.102;20.614;2023-02-13T14:08:59;6.70;99.90
20442;DHT22;10380;52.102;20.614;2023-02-13T14:13:57;6.80;99.90
20442;DHT22;10380;52.102;20.614;2023-02-13T14:16:45;6.80;99.90
20442;DHT22;10380;52.102;20.614;2023-02-13T14:19:45;6.80;99.90
20442;DHT22;10380;52.102;20.614;2023-02-13T14:24:52;6.80;99.90
20442;DHT22;10380;52.102;20.614;2023-02-13T14:27:25;6.80;99.90
20442;DHT22;10380;52.102;20.614;2023-02-13T14:29:53;6.80;99.90
20442;DHT22;10380;52.102;20.614;2023-02-13T14:32:33;6.90;99.90
20442;DHT22;10380;52.102;20.614;2023-02-13T14:35:25;6.70;99.90
20442;DHT22;10380;52.102;20.614;2023-02-13T14:37:53;6.60;99.90
20442;DHT22;10380;52.102;20.614;2023-02-13T14:43:22;6.50;99.90
20442;DHT22;10380;52.102;20.614;2023-02-13T14:45:53;6.50;99.90
20442;DHT22;10380;52.102;20.614;2023-02-13T14:48:34;6.50;99.90
20442;DHT22;10380;52.102;20.614;2023-02-13T14:51:04;6.50;99.90
20442;DHT22;10380;52.102;20.614;2023-02-13T14:53:44;6.50;99.90
20442;DHT22;10380;52.102;20.614;2023-02-13T14:56:14;6.50;99.90
20442;DHT22;10380;52.102;20.614;2023-02-13T14:59:00;6.50;99.90
20442;DHT22;10380;52.102;20.614;2023-02-13T15:01:33;6.50;99.90
20442;DHT22;10380;52.102;20.614;2023-02-13T15:04:14;6.50;99.90
20442;DHT22;10380;52.102;20.614;2023-02-13T15:06:43;6.50;99.90
20442;DHT22;10380;52.102;20.614;2023-02-13T15:09:33;6.40;99.90
20442;DHT22;10380;52.102;20.614;2023-02-13T15:12:01;6.40;99.90
20442;DHT22;10380;52.102;20.614;2023-02-13T15:14:34;6.40;99.90
20442;DHT22;10380;52.102;20.614;2023-02-13T15:17:10;6.40;99.90
20442;DHT22;10380;52.102;20.614;2023-02-13T15:19:47;6.40;99.90
20442;DHT22;10380;52.102;20.614;2023-02-13T15:22:34;6.40;99.90
20442;DHT22;10380;52.102;20.614;2023-02-13T15:25:03;6.30;99.90
20442;DHT22;10380;52.102;20.614;2023-02-13T15:27:33;6.30;99.90
20442;DHT22;10380;52.102;20.614;2023-02-13T15:30:18;6.30;99.90
20442;DHT22;10380;52.102;20.614;2023-02-13T15:33:02;6.30;99.90
20442;DHT22;10380;52.102;20.614;2023-02-13T15:35:34;6.30;99.90
20442;DHT22;10380;52.102;20.614;2023-02-13T15:38:25;6.30;99.90
20442;DHT22;10380;52.102;20.614;2023-02-13T15:40:56;6.20;99.90
20442;DHT22;10380;52.102;20.614;2023-02-13T15:43:37;6.30;99.90
20442;DHT22;10380;52.102;20.614;2023-02-13T15:46:07;6.30;99.90
20442;DHT22;10380;52.102;20.614;2023-02-13T15:48:44;6.20;99.90
20442;DHT22;10380;52.102;20.614;2023-02-13T15:51:21;6.20;99.90
20442;DHT22;10380;52.102;20.614;2023-02-13T15:56:18;6.20;99.90
20442;DHT22;10380;52.102;20.614;2023-02-13T15:58:45;6.20;99.90
20442;DHT22;10380;52.102;20.614;2023-02-13T16:03:41;6.10;99.90
20442;DHT22;10380;52.102;20.614;2023-02-13T16:06:14;6.10;99.90
20442;DHT22;10380;52.102;20.614;2023-02-13T16:19:29;6.10;99.90
20442;DHT22;10380;52.102;20.614;2023-02-13T16:21:59;6.10;99.90
20442;DHT22;10380;52.102;20.614;2023-02-13T16:24:28;6.10;99.90
20442;DHT22;10380;52.102;20.614;2023-02-13T16:26:55;6.00;99.90
20442;DHT22;10380;52.102;20.614;2023-02-13T16:29:24;6.10;99.90
20442;DHT22;10380;52.102;20.614;2023-02-13T16:31:52;6.10;99.90
20442;DHT22;10380;52.102;20.614;2023-02-13T16:34:29;6.10;99.90
20442;DHT22;10380;52.102;20.614;2023-02-13T16:36:56;6.00;99.90
20442;DHT22;10380;52.102;20.614;2023-02-13T16:39:29;6.10;99.90
20442;DHT22;10380;52.102;20.614;2023-02-13T16:41:57;6.00;99.90
20442;DHT22;10380;52.102;20.614;2023-02-13T16:44:30;5.40;99.90
20442;DHT22;10380;52.102;20.614;2023-02-13T16:47:04;6.00;99.90
20442;DHT22;10380;52.102;20.614;2023-02-13T16:49:33;6.00;99.90
20442;DHT22;10380;52.102;20.614;2023-02-13T16:52:15;6.00;99.90
20442;DHT22;10380;52.102;20.614;2023-02-13T17:05:15;6.00;99.90
20442;DHT22;10380;52.102;20.614;2023-02-13T17:07:50;5.90;99.90
20442;DHT22;10380;52.102;20.614;2023-02-13T17:12:50;5.90;99.90
20442;DHT22;10380;52.102;20.614;2023-02-13T17:15:21;5.90;99.90
20442;DHT22;10380;52.102;20.614;2023-02-13T17:17:48;5.90;99.90
20442;DHT22;10380;52.102;20.614;2023-02-13T17:20:33;6.30;99.90
20442;DHT22;10380;52.102;20.614;2023-02-13T17:23:03;5.90;99.90
20442;DHT22;10380;52.102;20.614;2023-02-13T17:25:35;5.90;99.90
20442;DHT22;10380;52.102;20.614;2023-02-13T17:28:34;5.90;99.90
20442;DHT22;10380;52.102;20.614;2023-02-13T17:31:01;5.80;99.90
20442;DHT22;10380;52.102;20.614;2023-02-13T17:33:30;5.80;99.90
20442;DHT22;10380;52.102;20.614;2023-02-13T17:35:57;5.80;99.90
20442;DHT22;10380;52.102;20.614;2023-02-13T17:38:25;5.80;99.90
20442;DHT22;10380;52.102;20.614;2023-02-13T17:40:51;5.80;99.90
20442;DHT22;10380;52.102;20.614;2023-02-13T17:43:19;5.80;99.90
20442;DHT22;10380;52.102;20.614;2023-02-13T17:45:47;5.80;99.90
20442;DHT22;10380;52.102;20.614;2023-02-13T17:48:15;5.80;99.90
20442;DHT22;10380;52.102;20.614;2023-02-13T17:50:43;5.80;99.90
20442;DHT22;10380;52.102;20.614;2023-02-13T17:53:28;5.80;99.90
20442;DHT22;10380;52.102;20.614;2023-02-13T17:55:56;5.80;99.90
20442;DHT22;10380;52.102;20.614;2023-02-13T17:58:23;5.80;99.90
20442;DHT22;10380;52.102;20.614;2023-02-13T18:00:50;5.70;99.90
20442;DHT22;10380;52.102;20.614;2023-02-13T18:03:18;5.70;99.90
20442;DHT22;10380;52.102;20.614;2023-02-13T18:05:48;5.70;99.90
20442;DHT22;10380;52.102;20.614;2023-02-13T18:08:15;6.10;99.90
20442;DHT22;10380;52.102;20.614;2023-02-13T18:10:42;5.70;99.90
20442;DHT22;10380;52.102;20.614;2023-02-13T18:13:09;5.70;99.90
20442;DHT22;10380;52.102;20.614;2023-02-13T18:15:42;5.70;99.90
20442;DHT22;10380;52.102;20.614;2023-02-13T18:18:10;5.70;99.90
20442;DHT22;10380;52.102;20.614;2023-02-13T18:20:37;5.70;99.90
20442;DHT22;10380;52.102;20.614;2023-02-13T18:23:05;5.70;99.90
20442;DHT22;10380;52.102;20.614;2023-02-13T18:25:32;5.60;99.90
20442;DHT22;10380;52.102;20.614;2023-02-13T18:27:59;5.50;99.90
20442;DHT22;10380;52.102;20.614;2023-02-13T18:30:26;5.60;99.90
20442;DHT22;10380;52.102;20.614;2023-02-13T18:32:55;5.60;99.90
20442;DHT22;10380;52.102;20.614;2023-02-13T18:35:24;5.60;99.90
20442;DHT22;10380;52.102;20.614;2023-02-13T18:37:51;5.60;99.90
20442;DHT22;10380;52.102;20.614;2023-02-13T18:40:19;5.60;99.90
20442;DHT22;10380;52.102;20.614;2023-02-13T18:42:45;5.60;99.90
20442;DHT22;10380;52.102;20.614;2023-02-13T18:45:12;5.60;99.90
20442;DHT22;10380;52.102;20.614;2023-02-13T18:47:39;5.60;99.90
20442;DHT22;10380;52.102;20.614;2023-02-13T18:50:07;5.60;99.90
20442;DHT22;10380;52.102;20.614;2023-02-13T18:52:34;5.60;99.90
20442;DHT22;10380;52.102;20.614;2023-02-13T18:55:02;5.60;99.90
20442;DHT22;10380;52.102;20.614;2023-02-13T18:57:28;5.60;99.90
20442;DHT22;10380;52.102;20.614;2023-02-13T18:59:55;5.60;99.90
20442;DHT22;10380;52.102;20.614;2023-02-13T19:02:22;5.60;99.90